Time;durP1;ratioP1;P1;durP2;ratioP2;P2;SDS_P1;SDS_P2;PMS_P1;PMS_P2;Temp;Humidity;BMP_temperature;BMP_pressure;BME280_temperature;BME280_humidity;BME280_pressure;Samples;Min_cycle;Max_cycle;Signal;HPM_P1;HPM_P2
2021/10/04 00:00:16;;;;;;;;;1.00;1.00;;;;;;;;5077324;27;45474;-73
2021/10/04 00:02:41;;;;;;;;;1.00;1.00;;;;;;;;5075592;27;45300;-72
2021/10/04 00:05:07;;;;;;;;;1.75;1.75;;;;;;;;5075569;27;45299;-73
2021/10/04 00:07:33;;;;;;;;;1.50;1.50;;;;;;;;5077129;27;45390;-72
2021/10/04 00:09:58;;;;;;;;;0.25;0.00;;;;;;;;5075808;27;46053;-73
2021/10/04 00:12:23;;;;;;;;;0.75;0.75;;;;;;;;5078457;27;45615;-73
2021/10/04 00:14:49;;;;;;;;;0.75;0.75;;;;;;;;5080438;27;45422;-73
2021/10/04 00:17:14;;;;;;;;;0.50;0.50;;;;;;;;5077365;27;45529;-73
2021/10/04 00:19:39;;;;;;;;;1.00;1.00;;;;;;;;5082680;27;45253;-73
2021/10/04 00:22:05;;;;;;;;;0.00;0.00;;;;;;;;5080510;27;45598;-73
2021/10/04 00:24:30;;;;;;;;;1.00;1.00;;;;;;;;5080983;27;46973;-72
2021/10/04 00:26:55;;;;;;;;;1.50;0.75;;;;;;;;5080659;27;45510;-73
2021/10/04 00:29:20;;;;;;;;;0.50;0.50;;;;;;;;5076283;28;45494;-73
2021/10/04 00:31:46;;;;;;;;;2.00;1.00;;;;;;;;5082419;27;45414;-74
2021/10/04 00:34:12;;;;;;;;;0.00;0.00;;;;;;;;5080682;27;45403;-73
2021/10/04 00:36:37;;;;;;;;;1.00;1.00;;;;;;;;5080172;27;45411;-73
2021/10/04 00:39:02;;;;;;;;;1.00;1.00;;;;;;;;5080506;27;47292;-72
2021/10/04 00:41:28;;;;;;;;;0.50;0.00;;;;;;;;5076823;27;45518;-73
2021/10/04 00:43:53;;;;;;;;;2.00;1.00;;;;;;;;5081693;27;45326;-73
2021/10/04 00:46:19;;;;;;;;;0.00;0.00;;;;;;;;5079649;27;45509;-73
2021/10/04 00:48:45;;;;;;;;;1.50;1.50;;;;;;;;5078657;27;46058;-73
2021/10/04 00:51:10;;;;;;;;;0.50;0.50;;;;;;;;5080161;27;45415;-74
2021/10/04 00:53:35;;;;;;;;;1.50;1.50;;;;;;;;5077949;27;45522;-73
2021/10/04 00:56:00;;;;;;;;;1.75;0.00;;;;;;;;5079947;27;45274;-73
2021/10/04 00:58:26;;;;;;;;;0.75;0.75;;;;;;;;5081551;27;45376;-73
2021/10/04 01:00:52;;;;;;;;;0.25;0.25;;;;;;;;5080293;27;45513;-73
2021/10/04 01:03:17;;;;;;;;;0.00;0.00;;;;;;;;5080290;27;45427;-73
2021/10/04 01:05:42;;;;;;;;;2.50;0.50;;;;;;;;5078497;27;45370;-73
2021/10/04 01:08:07;;;;;;;;;1.00;1.00;;;;;;;;5077590;27;46295;-73
2021/10/04 01:10:33;;;;;;;;;0.00;0.00;;;;;;;;5082195;27;45355;-73
2021/10/04 01:12:58;;;;;;;;;0.00;0.00;;;;;;;;5080290;27;45327;-73
2021/10/04 01:15:23;;;;;;;;;1.75;0.75;;;;;;;;5080186;27;45385;-73
2021/10/04 01:17:49;;;;;;;;;2.00;0.75;;;;;;;;5079083;27;46277;-73
2021/10/04 01:20:14;;;;;;;;;0.00;0.00;;;;;;;;5076093;27;45456;-73
2021/10/04 01:22:40;;;;;;;;;0.00;0.00;;;;;;;;5082101;27;45386;-72
2021/10/04 01:25:06;;;;;;;;;0.00;0.00;;;;;;;;5077300;27;45275;-72
2021/10/04 01:27:31;;;;;;;;;1.00;0.00;;;;;;;;5077904;27;47112;-72
2021/10/04 01:29:56;;;;;;;;;2.00;1.00;;;;;;;;5079721;27;45375;-72
2021/10/04 01:32:21;;;;;;;;;1.00;1.00;;;;;;;;5075621;27;45381;-72
2021/10/04 01:34:47;;;;;;;;;2.50;0.00;;;;;;;;5081539;27;45451;-72
2021/10/04 01:37:12;;;;;;;;;0.00;0.00;;;;;;;;5079678;27;45653;-71
2021/10/04 01:39:37;;;;;;;;;0.75;0.00;;;;;;;;5079692;27;45546;-71
2021/10/04 01:42:02;;;;;;;;;0.00;0.00;;;;;;;;5079870;27;45461;-72
2021/10/04 01:44:27;;;;;;;;;0.00;0.00;;;;;;;;5075866;27;45402;-72
2021/10/04 01:46:53;;;;;;;;;0.00;0.00;;;;;;;;5080913;27;45382;-72
2021/10/04 01:49:18;;;;;;;;;0.50;0.50;;;;;;;;5078549;27;45387;-72
2021/10/04 01:51:43;;;;;;;;;1.50;1.50;;;;;;;;5079469;27;45289;-72
2021/10/04 01:54:08;;;;;;;;;1.00;1.00;;;;;;;;5079342;27;45423;-72
2021/10/04 01:56:34;;;;;;;;;0.00;0.00;;;;;;;;5076370;27;46037;-72
2021/10/04 01:58:59;;;;;;;;;1.00;1.00;;;;;;;;5079242;27;45403;-72
2021/10/04 02:01:24;;;;;;;;;0.50;0.50;;;;;;;;5079973;27;45228;-72
2021/10/04 02:03:49;;;;;;;;;0.75;0.75;;;;;;;;5077347;27;45504;-72
2021/10/04 02:06:15;;;;;;;;;1.50;1.50;;;;;;;;5077429;27;46412;-72
2021/10/04 02:08:40;;;;;;;;;1.00;1.00;;;;;;;;5077295;27;45386;-72
2021/10/04 02:11:05;;;;;;;;;2.00;1.00;;;;;;;;5077469;27;45233;-72
2021/10/04 02:13:30;;;;;;;;;2.00;0.00;;;;;;;;5081937;27;45175;-72
2021/10/04 02:15:55;;;;;;;;;1.25;1.00;;;;;;;;5079083;27;47112;-71
2021/10/04 02:18:21;;;;;;;;;1.00;0.00;;;;;;;;5078443;27;45297;-72
2021/10/04 02:20:47;;;;;;;;;1.50;1.50;;;;;;;;5077771;27;45461;-72
2021/10/04 02:23:14;;;;;;;;;2.00;0.00;;;;;;;;5075808;27;45529;-72
2021/10/04 02:25:41;;;;;;;;;2.00;0.00;;;;;;;;5080966;27;46876;-72
2021/10/04 02:28:08;;;;;;;;;1.50;1.50;;;;;;;;5078984;27;45326;-72
2021/10/04 02:30:34;;;;;;;;;0.00;0.00;;;;;;;;5078838;27;45423;-72
2021/10/04 02:32:59;;;;;;;;;1.75;0.75;;;;;;;;5078399;27;45430;-72
2021/10/04 02:35:24;;;;;;;;;0.00;0.00;;;;;;;;5074184;27;47363;-72
2021/10/04 02:37:51;;;;;;;;;2.75;0.00;;;;;;;;5080749;27;45410;-72
2021/10/04 02:40:16;;;;;;;;;0.00;0.00;;;;;;;;5078806;27;45473;-72
2021/10/04 02:42:42;;;;;;;;;0.75;0.00;;;;;;;;5077339;27;45546;-72
2021/10/04 02:45:09;;;;;;;;;2.50;1.50;;;;;;;;5076845;27;46242;-72
2021/10/04 02:47:34;;;;;;;;;0.00;0.00;;;;;;;;5075654;27;45519;-72
2021/10/04 02:50:00;;;;;;;;;0.50;0.50;;;;;;;;5077890;27;45289;-73
2021/10/04 02:52:25;;;;;;;;;2.00;2.00;;;;;;;;5079449;27;45312;-72
2021/10/04 02:54:50;;;;;;;;;1.00;0.00;;;;;;;;5078272;27;46836;-72
2021/10/04 02:57:16;;;;;;;;;0.75;0.75;;;;;;;;5078330;27;45468;-72
2021/10/04 02:59:41;;;;;;;;;0.00;0.00;;;;;;;;5077028;27;47538;-72
2021/10/04 03:02:06;;;;;;;;;2.00;0.75;;;;;;;;5075381;27;45363;-72
2021/10/04 03:04:32;;;;;;;;;0.00;0.00;;;;;;;;5080397;27;45378;-72
2021/10/04 03:06:57;;;;;;;;;0.50;0.50;;;;;;;;5078233;27;45393;-72
2021/10/04 03:09:22;;;;;;;;;1.00;1.00;;;;;;;;5078619;27;45293;-72
2021/10/04 03:11:48;;;;;;;;;0.00;0.00;;;;;;;;5077487;27;45392;-72
2021/10/04 03:14:13;;;;;;;;;1.75;0.00;;;;;;;;5075869;27;46870;-72
2021/10/04 03:16:38;;;;;;;;;1.50;0.25;;;;;;;;5080978;27;45395;-72
2021/10/04 03:19:03;;;;;;;;;0.75;0.00;;;;;;;;5078004;27;45269;-72
2021/10/04 03:21:28;;;;;;;;;0.50;0.50;;;;;;;;5076720;27;45500;-72
2021/10/04 03:23:54;;;;;;;;;2.25;1.25;;;;;;;;5075908;27;45397;-73
2021/10/04 03:26:19;;;;;;;;;1.00;1.00;;;;;;;;5057288;28;45308;-72
2021/10/04 03:28:44;;;;;;;;;0.00;0.00;;;;;;;;5079995;27;45269;-74
2021/10/04 03:31:10;;;;;;;;;0.00;0.00;;;;;;;;5077607;27;45431;-73
2021/10/04 03:33:35;;;;;;;;;1.25;1.25;;;;;;;;5077636;27;46397;-73
2021/10/04 03:36:00;;;;;;;;;1.50;1.50;;;;;;;;5077717;27;45547;-72
2021/10/04 03:38:25;;;;;;;;;1.00;0.00;;;;;;;;5074187;27;45509;-72
2021/10/04 03:40:51;;;;;;;;;1.00;0.25;;;;;;;;5079414;27;45351;-73
2021/10/04 03:43:16;;;;;;;;;3.25;3.00;;;;;;;;5077383;27;46129;-74
2021/10/04 03:45:41;;;;;;;;;1.00;0.25;;;;;;;;5077161;27;45505;-73
2021/10/04 03:48:06;;;;;;;;;1.00;1.00;;;;;;;;5061286;27;45260;-74
2021/10/04 03:50:31;;;;;;;;;1.75;1.00;;;;;;;;5078517;27;45541;-74
2021/10/04 03:52:57;;;;;;;;;14.75;14.00;;;;;;;;5081173;27;46186;-74
2021/10/04 03:55:22;;;;;;;;;3.00;2.00;;;;;;;;5079437;27;45291;-73
2021/10/04 03:57:47;;;;;;;;;2.00;2.00;;;;;;;;5081203;27;45229;-73
2021/10/04 04:00:14;;;;;;;;;1.50;1.50;;;;;;;;5081661;27;45301;-74
2021/10/04 04:02:39;;;;;;;;;1.00;1.00;;;;;;;;5077332;27;47430;-74
2021/10/04 04:05:05;;;;;;;;;2.00;2.00;;;;;;;;5078711;27;45323;-73
2021/10/04 04:07:31;;;;;;;;;0.25;0.25;;;;;;;;5082659;27;45426;-73
2021/10/04 04:09:56;;;;;;;;;2.00;0.75;;;;;;;;5080452;27;45392;-74
2021/10/04 04:12:21;;;;;;;;;1.00;0.00;;;;;;;;5080353;27;46108;-74
2021/10/04 04:14:46;;;;;;;;;0.50;0.00;;;;;;;;5078622;27;45468;-73
2021/10/04 04:17:11;;;;;;;;;0.00;0.00;;;;;;;;5077017;27;45566;-73
2021/10/04 04:19:37;;;;;;;;;0.00;0.00;;;;;;;;5082764;27;45392;-73
2021/10/04 04:22:02;;;;;;;;;0.75;0.00;;;;;;;;5080535;27;46140;-73
2021/10/04 04:24:27;;;;;;;;;1.00;1.00;;;;;;;;5080323;27;45496;-73
2021/10/04 04:26:53;;;;;;;;;2.00;2.00;;;;;;;;5080114;27;45465;-73
2021/10/04 04:29:19;;;;;;;;;3.00;1.25;;;;;;;;5075330;27;45342;-73
2021/10/04 04:31:44;;;;;;;;;1.25;0.75;;;;;;;;5081616;27;45224;-73
2021/10/04 04:34:10;;;;;;;;;1.00;1.00;;;;;;;;5079729;27;45519;-74
2021/10/04 04:36:35;;;;;;;;;0.25;0.25;;;;;;;;5080019;27;45416;-72
2021/10/04 04:39:00;;;;;;;;;3.75;2.00;;;;;;;;5078499;27;45364;-72
2021/10/04 04:41:25;;;;;;;;;3.00;1.25;;;;;;;;5074343;27;46241;-73
2021/10/04 04:43:50;;;;;;;;;0.00;0.00;;;;;;;;5081560;27;45279;-74
2021/10/04 04:46:16;;;;;;;;;2.75;2.75;;;;;;;;5079363;27;45429;-73
2021/10/04 04:48:41;;;;;;;;;2.00;2.00;;;;;;;;5079700;27;45423;-74
2021/10/04 04:51:06;;;;;;;;;1.00;0.00;;;;;;;;5079262;27;46310;-74
2021/10/04 04:53:31;;;;;;;;;1.00;1.00;;;;;;;;5076591;27;45442;-71
2021/10/04 04:55:56;;;;;;;;;0.00;0.00;;;;;;;;5080197;27;45356;-74
2021/10/04 04:58:22;;;;;;;;;4.25;2.00;;;;;;;;5079988;27;45547;-74
2021/10/04 05:00:47;;;;;;;;;7.00;3.50;;;;;;;;5079117;27;45338;-77
2021/10/04 05:03:13;;;;;;;;;2.00;2.00;;;;;;;;5079535;27;45304;-77
2021/10/04 05:05:38;;;;;;;;;2.00;1.50;;;;;;;;5076853;27;45488;-75
2021/10/04 05:08:03;;;;;;;;;1.00;0.75;;;;;;;;5077466;27;45380;-76
2021/10/04 05:10:29;;;;;;;;;3.50;3.00;;;;;;;;5080516;27;46118;-77
2021/10/04 05:12:54;;;;;;;;;3.50;2.00;;;;;;;;5078468;27;45495;-77
2021/10/04 05:15:19;;;;;;;;;2.00;0.00;;;;;;;;5078977;27;45496;-76
2021/10/04 05:17:44;;;;;;;;;1.00;1.00;;;;;;;;5076102;27;45480;-77
2021/10/04 05:20:10;;;;;;;;;3.50;2.00;;;;;;;;5076035;27;46158;-76
2021/10/04 05:22:35;;;;;;;;;2.50;1.50;;;;;;;;5078749;27;45356;-76
2021/10/04 05:25:01;;;;;;;;;1.00;1.00;;;;;;;;5078285;27;45402;-76
2021/10/04 05:27:26;;;;;;;;;1.00;1.00;;;;;;;;5078427;27;45313;-74
2021/10/04 05:29:51;;;;;;;;;1.00;1.00;;;;;;;;5077428;27;46259;-75
2021/10/04 05:32:16;;;;;;;;;1.25;1.25;;;;;;;;5073723;27;45618;-75
2021/10/04 05:34:42;;;;;;;;;1.50;1.50;;;;;;;;5080592;27;45458;-74
2021/10/04 05:37:07;;;;;;;;;3.00;2.00;;;;;;;;5078525;27;45343;-74
2021/10/04 05:39:32;;;;;;;;;1.00;1.00;;;;;;;;5078310;27;47429;-74
2021/10/04 05:41:57;;;;;;;;;2.75;2.00;;;;;;;;5077787;27;45550;-74
2021/10/04 05:44:23;;;;;;;;;8.00;8.00;;;;;;;;5073672;27;45399;-74
2021/10/04 05:46:48;;;;;;;;;3.50;3.50;;;;;;;;5079748;27;45354;-76
2021/10/04 05:49:13;;;;;;;;;1.00;1.00;;;;;;;;5077241;27;46003;-76
2021/10/04 05:51:38;;;;;;;;;1.00;1.00;;;;;;;;5077194;27;45319;-73
2021/10/04 05:54:03;;;;;;;;;4.50;2.50;;;;;;;;5077649;27;45498;-73
2021/10/04 05:56:29;;;;;;;;;3.25;2.00;;;;;;;;5072607;27;45379;-75
2021/10/04 05:58:54;;;;;;;;;2.25;2.00;;;;;;;;5078042;27;46442;-75
2021/10/04 06:01:19;;;;;;;;;2.50;2.25;;;;;;;;5076855;27;45442;-75
2021/10/04 06:03:44;;;;;;;;;3.50;1.25;;;;;;;;5078188;27;45279;-76
2021/10/04 06:06:09;;;;;;;;;2.00;1.25;;;;;;;;5077728;27;45454;-75
2021/10/04 06:08:35;;;;;;;;;2.25;0.75;;;;;;;;5074195;27;45477;-75
2021/10/04 06:11:00;;;;;;;;;2.25;1.00;;;;;;;;5075726;27;45381;-73
2021/10/04 06:13:25;;;;;;;;;3.00;2.00;;;;;;;;5077901;27;45476;-75
2021/10/04 06:15:50;;;;;;;;;3.00;1.00;;;;;;;;5077313;27;45206;-74
2021/10/04 06:18:16;;;;;;;;;3.00;2.00;;;;;;;;5076715;27;46415;-77
2021/10/04 06:20:41;;;;;;;;;1.00;1.00;;;;;;;;5075650;27;45480;-75
2021/10/04 06:23:07;;;;;;;;;4.75;1.00;;;;;;;;5074304;27;45298;-74
2021/10/04 06:25:32;;;;;;;;;2.50;1.00;;;;;;;;5076478;27;45461;-77
2021/10/04 06:27:58;;;;;;;;;3.25;2.00;;;;;;;;5076702;27;45293;-77
2021/10/04 06:30:23;;;;;;;;;2.00;2.00;;;;;;;;5076437;27;45381;-77
2021/10/04 06:32:48;;;;;;;;;6.50;2.00;;;;;;;;5075619;27;45316;-77
2021/10/04 06:35:14;;;;;;;;;1.25;0.25;;;;;;;;5072963;27;45569;-77
2021/10/04 06:37:39;;;;;;;;;2.25;2.00;;;;;;;;5076818;27;45940;-79
2021/10/04 06:40:05;;;;;;;;;5.00;2.00;;;;;;;;5075738;27;45526;-79
2021/10/04 06:42:30;;;;;;;;;1.75;1.50;;;;;;;;5083236;27;45374;-79
2021/10/04 06:44:56;;;;;;;;;1.00;1.00;;;;;;;;5058123;27;45533;-78
2021/10/04 06:47:22;;;;;;;;;4.00;4.00;;;;;;;;5071864;27;47049;-75
2021/10/04 06:49:47;;;;;;;;;6.25;5.00;;;;;;;;5078073;27;45411;-75
2021/10/04 06:52:12;;;;;;;;;4.00;4.00;;;;;;;;5076616;27;45330;-78
2021/10/04 06:54:37;;;;;;;;;5.00;3.75;;;;;;;;5074889;27;45387;-78
2021/10/04 06:57:03;;;;;;;;;2.75;2.75;;;;;;;;5076331;27;45581;-78
2021/10/04 06:59:28;;;;;;;;;3.75;2.25;;;;;;;;5072819;27;45510;-79
2021/10/04 07:01:53;;;;;;;;;2.00;2.00;;;;;;;;5077782;27;45356;-78
2021/10/04 07:04:18;;;;;;;;;2.00;2.00;;;;;;;;5076874;27;45582;-76
2021/10/04 07:06:44;;;;;;;;;5.00;3.25;;;;;;;;5076215;27;46319;-78
2021/10/04 07:09:10;;;;;;;;;3.00;3.00;;;;;;;;5076140;27;45243;-76
2021/10/04 07:11:35;;;;;;;;;4.25;3.75;;;;;;;;5073459;27;45393;-78
2021/10/04 07:14:00;;;;;;;;;1.00;1.00;;;;;;;;5075694;27;45435;-77
2021/10/04 07:16:25;;;;;;;;;3.00;1.25;;;;;;;;5077067;27;46287;-77
2021/10/04 07:18:51;;;;;;;;;1.00;1.00;;;;;;;;5074844;27;45310;-79
2021/10/04 07:21:16;;;;;;;;;1.00;1.00;;;;;;;;5076037;27;45412;-77
2021/10/04 07:23:43;;;;;;;;;3.75;2.00;;;;;;;;5074108;27;45455;-76
2021/10/04 07:26:09;;;;;;;;;4.75;3.00;;;;;;;;5074621;27;45296;-78
2021/10/04 07:28:34;;;;;;;;;2.50;2.00;;;;;;;;5078376;27;45360;-77
2021/10/04 07:31:03;;;;;;;;;2.00;1.00;;;;;;;;5076627;27;45481;-77
2021/10/04 07:33:28;;;;;;;;;2.00;1.50;;;;;;;;5058486;28;45346;-77
2021/10/04 07:35:55;;;;;;;;;3.00;3.00;;;;;;;;5076689;27;47565;-76
2021/10/04 07:38:21;;;;;;;;;2.25;2.00;;;;;;;;5056539;28;45210;-77
2021/10/04 07:40:46;;;;;;;;;2.75;1.50;;;;;;;;5079238;27;45350;-77
2021/10/04 07:43:11;;;;;;;;;3.00;3.00;;;;;;;;5076461;27;45407;-77
2021/10/04 07:45:36;;;;;;;;;3.50;2.00;;;;;;;;5076025;27;46382;-77
2021/10/04 07:48:02;;;;;;;;;3.00;3.00;;;;;;;;5076238;27;45312;-77
2021/10/04 07:50:28;;;;;;;;;2.25;2.25;;;;;;;;5072401;27;45476;-78
2021/10/04 07:52:53;;;;;;;;;5.00;2.25;;;;;;;;5076859;27;45307;-77
2021/10/04 07:55:19;;;;;;;;;1.50;1.50;;;;;;;;5075361;27;46075;-78
2021/10/04 07:57:48;;;;;;;;;6.00;3.75;;;;;;;;5074666;27;45529;-78
2021/10/04 08:00:14;;;;;;;;;6.75;2.75;;;;;;;;5076303;27;45489;-78
2021/10/04 08:02:39;;;;;;;;;4.75;2.00;;;;;;;;5073540;27;45362;-77
2021/10/04 08:05:04;;;;;;;;;7.75;4.00;;;;;;;;5073961;27;47289;-76
2021/10/04 08:07:29;;;;;;;;;3.00;3.00;;;;;;;;5077451;27;45390;-76
2021/10/04 08:09:55;;;;;;;;;2.00;2.00;;;;;;;;5076343;27;45500;-77
2021/10/04 08:12:23;;;;;;;;;4.00;3.00;;;;;;;;5076478;27;45398;-76
2021/10/04 08:14:48;;;;;;;;;4.50;3.00;;;;;;;;5074842;27;46261;-75
2021/10/04 08:17:14;;;;;;;;;2.50;2.50;;;;;;;;5053813;28;45780;-78
2021/10/04 08:19:39;;;;;;;;;3.00;1.00;;;;;;;;5077210;27;45395;-76
2021/10/04 08:22:04;;;;;;;;;6.00;4.00;;;;;;;;5075970;27;45371;-78
2021/10/04 08:24:29;;;;;;;;;1.75;1.75;;;;;;;;5075962;27;47229;-77
2021/10/04 08:26:54;;;;;;;;;2.00;2.00;;;;;;;;5076104;27;45326;-77
2021/10/04 08:29:20;;;;;;;;;1.25;1.25;;;;;;;;5071604;27;45370;-77
2021/10/04 08:31:45;;;;;;;;;3.00;1.50;;;;;;;;5078597;27;45369;-77
2021/10/04 08:34:10;;;;;;;;;3.00;3.00;;;;;;;;5087702;27;45433;-75
2021/10/04 08:36:36;;;;;;;;;3.00;2.00;;;;;;;;5076916;27;45370;-77
2021/10/04 08:39:03;;;;;;;;;0.25;0.25;;;;;;;;5079106;27;45500;-77
2021/10/04 08:41:29;;;;;;;;;5.50;3.00;;;;;;;;5075375;27;45443;-77
2021/10/04 08:43:55;;;;;;;;;2.00;1.25;;;;;;;;5079182;27;47002;-77
2021/10/04 08:46:20;;;;;;;;;9.50;7.75;;;;;;;;5078554;27;45257;-76
2021/10/04 08:48:46;;;;;;;;;3.00;3.00;;;;;;;;5078220;27;45534;-77
2021/10/04 08:51:11;;;;;;;;;3.75;3.75;;;;;;;;5060586;27;45506;-75
2021/10/04 08:53:37;;;;;;;;;1.00;1.00;;;;;;;;5075586;27;45831;-77
2021/10/04 08:56:03;;;;;;;;;2.25;2.25;;;;;;;;5077442;27;46106;-78
2021/10/04 08:58:32;;;;;;;;;4.00;1.25;;;;;;;;5079687;27;45294;-77
2021/10/04 09:00:57;;;;;;;;;3.75;3.75;;;;;;;;5078491;27;45583;-77
2021/10/04 09:03:22;;;;;;;;;3.50;2.50;;;;;;;;5077667;27;46082;-77
2021/10/04 09:05:55;;;;;;;;;6.25;2.00;;;;;;;;5076839;27;45421;-77
2021/10/04 09:08:20;;;;;;;;;3.25;3.00;;;;;;;;5075973;27;45315;-76
2021/10/04 09:10:49;;;;;;;;;5.25;4.00;;;;;;;;5091978;27;45348;-77
2021/10/04 09:13:15;;;;;;;;;2.25;2.25;;;;;;;;5078708;27;46235;-77
2021/10/04 09:15:45;;;;;;;;;2.75;1.50;;;;;;;;5077528;27;45300;-77
2021/10/04 09:18:24;;;;;;;;;4.00;2.25;;;;;;;;5078525;27;45441;-78
2021/10/04 09:20:51;;;;;;;;;1.75;1.50;;;;;;;;5077371;27;45379;-76
2021/10/04 09:23:35;;;;;;;;;3.25;3.25;;;;;;;;5074524;27;46407;-78
2021/10/04 09:26:01;;;;;;;;;1.00;0.25;;;;;;;;5088527;27;45364;-75
2021/10/04 09:28:44;;;;;;;;;4.00;1.75;;;;;;;;5079100;27;45187;-77
2021/10/04 09:31:24;;;;;;;;;3.75;3.00;;;;;;;;5078067;27;45301;-78
2021/10/04 09:34:00;;;;;;;;;2.00;2.00;;;;;;;;5077173;27;45341;-77
2021/10/04 09:36:27;;;;;;;;;2.00;2.00;;;;;;;;5077854;27;45471;-78
2021/10/04 09:39:12;;;;;;;;;1.00;1.00;;;;;;;;5078110;27;45426;-77
2021/10/04 09:41:54;;;;;;;;;2.00;2.00;;;;;;;;5061318;27;45395;-76
2021/10/04 09:44:20;;;;;;;;;4.00;2.00;;;;;;;;5089353;27;45425;-78
2021/10/04 09:46:45;;;;;;;;;4.00;2.00;;;;;;;;5093799;27;45332;-77
2021/10/04 09:49:10;;;;;;;;;4.25;2.25;;;;;;;;5078905;27;45350;-78
2021/10/04 09:51:35;;;;;;;;;4.00;1.25;;;;;;;;5076389;27;45787;-78
2021/10/04 09:54:08;;;;;;;;;2.75;1.75;;;;;;;;5075859;27;46290;-77
2021/10/04 09:56:33;;;;;;;;;3.50;1.75;;;;;;;;5074960;27;45715;-77
2021/10/04 09:58:59;;;;;;;;;2.75;1.50;;;;;;;;5077940;27;45373;-77
2021/10/04 10:01:24;;;;;;;;;3.00;1.00;;;;;;;;5059838;27;45540;-77
2021/10/04 10:03:49;;;;;;;;;2.50;2.50;;;;;;;;5077011;27;47104;-76
2021/10/04 10:06:15;;;;;;;;;0.00;0.00;;;;;;;;5077591;27;45361;-77
2021/10/04 10:08:40;;;;;;;;;4.25;3.50;;;;;;;;5075380;27;45504;-78
2021/10/04 10:11:06;;;;;;;;;1.00;1.00;;;;;;;;5075755;27;45377;-77
2021/10/04 10:13:32;;;;;;;;;5.75;4.00;;;;;;;;5078768;27;45493;-77
2021/10/04 10:16:00;;;;;;;;;1.00;1.00;;;;;;;;5077073;27;45426;-75
2021/10/04 10:18:27;;;;;;;;;2.00;2.00;;;;;;;;5076834;27;45406;-78
2021/10/04 10:20:53;;;;;;;;;3.00;3.00;;;;;;;;5077007;27;45462;-77
2021/10/04 10:23:38;;;;;;;;;0.75;0.75;;;;;;;;5072218;27;45430;-78
2021/10/04 10:26:23;;;;;;;;;0.67;0.67;;;;;;;;5086645;27;45399;-77
2021/10/04 10:28:48;;;;;;;;;1.00;1.00;;;;;;;;5086134;27;45570;-78
2021/10/04 10:31:14;;;;;;;;;0.00;0.00;;;;;;;;5075633;27;45278;-78
2021/10/04 10:33:42;;;;;;;;;3.67;1.00;;;;;;;;5074904;27;46227;-78
2021/10/04 10:36:07;;;;;;;;;3.67;3.00;;;;;;;;5076359;27;45537;-78
2021/10/04 10:38:51;;;;;;;;;3.33;2.00;;;;;;;;5055254;27;45434;-78
2021/10/04 10:41:17;;;;;;;;;2.00;2.00;;;;;;;;5073177;27;45376;-77
2021/10/04 10:44:01;;;;;;;;;0.00;0.00;;;;;;;;5078475;27;46235;-77
2021/10/04 10:46:45;;;;;;;;;0.33;0.33;;;;;;;;5077192;27;46433;-78
2021/10/04 10:49:11;;;;;;;;;0.00;0.00;;;;;;;;5076095;27;46308;-78
2021/10/04 10:51:36;;;;;;;;;2.00;2.00;;;;;;;;5076495;27;47183;-78
2021/10/04 10:54:20;;;;;;;;;1.00;1.00;;;;;;;;5075785;27;45344;-77
2021/10/04 10:56:52;;;;;;;;;1.00;0.00;;;;;;;;5074357;27;45395;-76
2021/10/04 10:59:24;;;;;;;;;0.67;0.67;;;;;;;;5072290;27;45416;-78
2021/10/04 11:01:50;;;;;;;;;1.67;1.67;;;;;;;;5086088;27;45292;-77
2021/10/04 11:04:35;;;;;;;;;3.33;1.00;;;;;;;;5076320;27;45517;-78
2021/10/04 11:07:00;;;;;;;;;0.67;0.67;;;;;;;;5076432;27;45394;-78
2021/10/04 11:09:25;;;;;;;;;3.00;2.00;;;;;;;;5076727;27;45438;-75
2021/10/04 11:11:56;;;;;;;;;0.00;0.00;;;;;;;;5074223;27;45344;-76
2021/10/04 11:14:21;;;;;;;;;2.33;2.33;;;;;;;;5071466;27;45471;-78
2021/10/04 11:16:56;;;;;;;;;1.67;1.67;;;;;;;;5078058;27;45446;-76
2021/10/04 11:19:22;;;;;;;;;1.00;1.00;;;;;;;;5075100;27;45522;-77
2021/10/04 11:21:49;;;;;;;;;2.67;1.00;;;;;;;;5075675;27;45319;-78
2021/10/04 11:24:18;;;;;;;;;1.00;1.00;;;;;;;;5075603;27;46210;-78
2021/10/04 11:26:43;;;;;;;;;1.00;1.00;;;;;;;;5074016;27;45391;-77
2021/10/04 11:29:10;;;;;;;;;1.67;1.00;;;;;;;;5073182;27;45264;-76
2021/10/04 11:31:37;;;;;;;;;4.00;3.00;;;;;;;;5094558;27;45443;-77
2021/10/04 11:34:04;;;;;;;;;1.33;1.33;;;;;;;;5082603;27;46920;-78
2021/10/04 11:36:39;;;;;;;;;33.00;26.50;;;;;;;;5080754;27;45353;-77
2021/10/04 11:39:07;;;;;;;;;0.00;0.00;;;;;;;;5075837;27;45357;-77
2021/10/04 11:41:33;;;;;;;;;2.33;2.00;;;;;;;;5072389;27;45476;-77
2021/10/04 11:43:59;;;;;;;;;0.67;0.00;;;;;;;;5075463;27;45990;-77
2021/10/04 11:46:27;;;;;;;;;1.00;1.00;;;;;;;;5057318;27;46048;-77
2021/10/04 11:49:08;;;;;;;;;6.75;5.50;;;;;;;;5080900;27;45365;-78
2021/10/04 11:51:37;;;;;;;;;2.33;0.00;;;;;;;;5080086;27;45462;-78
2021/10/04 11:54:03;;;;;;;;;1.33;0.67;;;;;;;;5075727;27;46361;-78
2021/10/04 11:56:28;;;;;;;;;3.33;2.00;;;;;;;;5072137;27;45390;-77
2021/10/04 11:58:55;;;;;;;;;2.67;2.00;;;;;;;;5077301;27;45314;-77
2021/10/04 12:01:29;;;;;;;;;2.33;2.33;;;;;;;;5075941;27;45478;-77
2021/10/04 12:03:58;;;;;;;;;0.33;0.00;;;;;;;;5075630;27;47069;-77
2021/10/04 12:06:26;;;;;;;;;1.00;1.00;;;;;;;;5075867;27;45277;-78
2021/10/04 12:08:51;;;;;;;;;2.00;1.67;;;;;;;;5073708;28;45538;-77
2021/10/04 12:11:16;;;;;;;;;1.33;1.33;;;;;;;;5092104;27;47124;-78
2021/10/04 12:13:42;;;;;;;;;2.00;0.67;;;;;;;;5063234;27;48069;-78
2021/10/04 12:16:09;;;;;;;;;0.00;0.00;;;;;;;;5060997;28;45304;-77
2021/10/04 12:18:44;;;;;;;;;0.33;0.00;;;;;;;;5080181;27;45350;-78
2021/10/04 12:21:18;;;;;;;;;2.67;2.67;;;;;;;;5079317;27;45493;-78
2021/10/04 12:23:44;;;;;;;;;0.33;0.33;;;;;;;;5077855;27;46164;-77
2021/10/04 12:26:11;;;;;;;;;2.00;2.00;;;;;;;;5077861;27;45477;-78
2021/10/04 12:28:46;;;;;;;;;0.00;0.00;;;;;;;;5082962;27;45426;-77
2021/10/04 12:31:28;;;;;;;;;0.00;0.00;;;;;;;;5078075;27;45282;-79
2021/10/04 12:33:53;;;;;;;;;0.67;0.67;;;;;;;;5059664;27;48243;-77
2021/10/04 12:36:18;;;;;;;;;0.00;0.00;;;;;;;;5079114;27;45456;-77
2021/10/04 12:38:54;;;;;;;;;1.00;1.00;;;;;;;;5078071;27;45505;-78
2021/10/04 12:41:19;;;;;;;;;0.33;0.33;;;;;;;;5075498;27;45452;-78
2021/10/04 12:43:46;;;;;;;;;1.00;0.00;;;;;;;;5081369;27;46170;-77
2021/10/04 12:46:15;;;;;;;;;0.00;0.00;;;;;;;;5079597;27;45369;-77
2021/10/04 12:48:42;;;;;;;;;0.00;0.00;;;;;;;;5078977;27;45390;-76
2021/10/04 12:51:09;;;;;;;;;1.00;1.00;;;;;;;;5078713;27;45274;-76
2021/10/04 12:53:43;;;;;;;;;0.00;0.00;;;;;;;;5076578;27;46518;-77
2021/10/04 12:56:08;;;;;;;;;2.00;0.00;;;;;;;;5075912;27;45352;-76
2021/10/04 12:58:35;;;;;;;;;0.00;0.00;;;;;;;;5078746;27;45383;-75
2021/10/04 13:01:12;;;;;;;;;1.67;1.00;;;;;;;;5078555;27;45410;-78
2021/10/04 13:03:55;;;;;;;;;3.00;1.00;;;;;;;;5078597;27;46177;-78
2021/10/04 13:06:50;;;;;;;;;0.00;0.00;;;;;;;;5076799;27;45277;-78
2021/10/04 13:09:15;;;;;;;;;1.00;1.00;;;;;;;;5058874;27;45502;-76
2021/10/04 13:11:46;;;;;;;;;0.00;0.00;;;;;;;;5075677;27;45355;-77
2021/10/04 13:14:11;;;;;;;;;1.00;1.00;;;;;;;;5075203;27;47058;-78
2021/10/04 13:16:36;;;;;;;;;1.00;1.00;;;;;;;;5080442;27;45311;-78
2021/10/04 13:19:01;;;;;;;;;0.00;0.00;;;;;;;;5078254;27;45267;-78
2021/10/04 13:21:27;;;;;;;;;4.00;3.00;;;;;;;;5078333;27;45406;-76
2021/10/04 13:23:52;;;;;;;;;1.00;1.00;;;;;;;;5077769;27;45447;-79
2021/10/04 13:26:19;;;;;;;;;0.67;0.67;;;;;;;;5074297;27;45423;-78
2021/10/04 13:28:44;;;;;;;;;0.00;0.00;;;;;;;;5081621;27;45526;-77
2021/10/04 13:31:11;;;;;;;;;1.33;1.00;;;;;;;;5078743;27;45428;-77
2021/10/04 13:33:37;;;;;;;;;1.00;1.00;;;;;;;;5078354;27;46381;-77
2021/10/04 13:36:02;;;;;;;;;1.00;1.00;;;;;;;;5075292;27;45505;-78
2021/10/04 13:38:30;;;;;;;;;4.33;1.00;;;;;;;;5090024;27;45266;-76
2021/10/04 13:40:56;;;;;;;;;1.00;1.00;;;;;;;;5079312;27;45421;-78
2021/10/04 13:43:21;;;;;;;;;3.00;0.67;;;;;;;;5078970;27;45481;-77
2021/10/04 13:45:47;;;;;;;;;0.00;0.00;;;;;;;;5076504;27;47805;-77
2021/10/04 13:48:12;;;;;;;;;1.00;1.00;;;;;;;;5076161;27;45688;-77
2021/10/04 13:50:37;;;;;;;;;1.00;0.00;;;;;;;;5075572;27;45493;-78
2021/10/04 13:53:02;;;;;;;;;0.00;0.00;;;;;;;;5077033;27;46182;-77
2021/10/04 13:55:27;;;;;;;;;0.00;0.00;;;;;;;;5078443;27;45525;-77
2021/10/04 13:57:53;;;;;;;;;0.00;0.00;;;;;;;;5075953;27;45535;-77
2021/10/04 14:00:18;;;;;;;;;3.00;0.67;;;;;;;;5058959;27;45408;-77
2021/10/04 14:02:43;;;;;;;;;0.00;0.00;;;;;;;;5076391;27;46254;-77
2021/10/04 14:05:09;;;;;;;;;2.00;2.00;;;;;;;;5075316;27;45395;-77
2021/10/04 14:07:35;;;;;;;;;0.00;0.00;;;;;;;;5093204;27;45388;-77
2021/10/04 14:10:00;;;;;;;;;2.33;1.00;;;;;;;;5076878;27;45474;-77
2021/10/04 14:12:26;;;;;;;;;1.00;0.00;;;;;;;;5077431;27;45422;-76
2021/10/04 14:14:51;;;;;;;;;0.00;0.00;;;;;;;;5076121;27;45448;-78
2021/10/04 14:17:17;;;;;;;;;0.67;0.67;;;;;;;;5073490;27;45399;-77
2021/10/04 14:19:42;;;;;;;;;2.00;0.00;;;;;;;;5079035;27;45414;-77
2021/10/04 14:22:07;;;;;;;;;0.00;0.00;;;;;;;;5086856;27;46119;-78
2021/10/04 14:24:33;;;;;;;;;1.00;1.00;;;;;;;;5081953;27;45344;-78
2021/10/04 14:27:00;;;;;;;;;1.00;1.00;;;;;;;;5076872;27;45404;-78
2021/10/04 14:29:25;;;;;;;;;0.00;0.00;;;;;;;;5072978;27;45485;-77
2021/10/04 14:31:50;;;;;;;;;0.33;0.33;;;;;;;;5078540;27;45312;-78
2021/10/04 14:34:16;;;;;;;;;2.00;0.00;;;;;;;;5077488;27;45365;-78
2021/10/04 14:36:41;;;;;;;;;0.00;0.00;;;;;;;;5076347;27;45418;-77
2021/10/04 14:39:06;;;;;;;;;0.33;0.33;;;;;;;;5076859;27;45347;-76